Time;durP1;ratioP1;P1;durP2;ratioP2;P2;SDS_P1;SDS_P2;PMS_P1;PMS_P2;Temp;Humidity;BMP_temperature;BMP_pressure;BME280_temperature;BME280_humidity;BME280_pressure;Samples;Min_cycle;Max_cycle;Signal;HPM_P1;HPM_P2
2023/02/04 00:00:18;;;;;;;4.65;3.47;;;;;;;3.71;100.00;97089.81;4996184;28;20043;-81
2023/02/04 00:02:45;;;;;;;5.70;3.28;;;;;;;3.73;100.00;97093.03;4983845;28;20475;-80
2023/02/04 00:05:12;;;;;;;4.88;2.90;;;;;;;3.81;100.00;97092.59;4986632;28;20066;-82
2023/02/04 00:10:27;;;;;;;6.50;3.08;;;;;;;3.81;100.00;97091.75;4974506;28;20145;-81
2023/02/04 00:13:02;;;;;;;6.53;3.47;;;;;;;3.84;100.00;97100.13;4982033;28;20064;-80
2023/02/04 00:15:30;;;;;;;4.90;3.28;;;;;;;3.88;100.00;97086.97;5004142;28;20077;-80
2023/02/04 00:17:57;;;;;;;5.35;3.25;;;;;;;3.92;100.00;97104.25;5004423;28;20046;-81
2023/02/04 00:20:24;;;;;;;7.20;3.00;;;;;;;3.98;100.00;97099.72;5015056;28;20050;-80
2023/02/04 00:22:51;;;;;;;6.38;3.20;;;;;;;4.02;100.00;97103.50;4995281;28;20050;-82
2023/02/04 00:25:18;;;;;;;7.82;2.92;;;;;;;4.06;100.00;97099.22;5014282;28;20050;-80
2023/02/04 00:27:46;;;;;;;10.90;2.90;;;;;;;3.97;100.00;97096.22;5016514;28;20125;-81
2023/02/04 00:30:14;;;;;;;11.25;3.67;;;;;;;3.96;100.00;97091.06;5011319;28;20080;-81
2023/02/04 00:32:41;;;;;;;9.02;2.80;;;;;;;3.94;100.00;97107.50;4996773;28;20078;-81
2023/02/04 00:35:08;;;;;;;10.90;2.92;;;;;;;4.00;100.00;97114.56;4982681;28;20108;-80
2023/02/04 00:37:35;;;;;;;13.00;2.92;;;;;;;4.03;100.00;97110.53;4994735;28;20077;-80
2023/02/04 00:40:02;;;;;;;7.85;2.60;;;;;;;3.99;100.00;97131.00;4997067;28;20114;-81
2023/02/04 00:42:28;;;;;;;6.60;2.65;;;;;;;4.02;100.00;97114.28;4982646;28;20063;-80
2023/02/04 00:44:57;;;;;;;7.18;2.47;;;;;;;4.04;100.00;97118.38;4987419;28;20074;-80
2023/02/04 00:47:34;;;;;;;7.55;2.85;;;;;;;4.02;100.00;97116.97;4958894;28;20997;-80
2023/02/04 00:50:01;;;;;;;6.43;2.80;;;;;;;4.00;100.00;97133.41;4969834;28;20164;-81
2023/02/04 00:52:27;;;;;;;8.38;3.13;;;;;;;3.92;100.00;97129.31;4992321;28;20133;-82
2023/02/04 00:54:54;;;;;;;9.70;3.10;;;;;;;3.88;100.00;97130.09;4996885;28;20051;-80
2023/02/04 00:57:24;;;;;;;9.93;2.90;;;;;;;3.91;100.00;97129.56;4995176;28;20574;-81
2023/02/04 00:59:50;;;;;;;7.93;2.97;;;;;;;3.84;100.00;97143.25;5003340;28;20052;-81
2023/02/04 01:02:18;;;;;;;13.70;3.30;;;;;;;3.79;100.00;97145.09;4995795;28;20105;-80
2023/02/04 01:04:50;;;;;;;6.93;2.95;;;;;;;3.86;100.00;97142.97;5002032;28;20128;-81
2023/02/04 01:07:18;;;;;;;14.25;3.40;;;;;;;3.81;100.00;97162.63;4985354;28;20085;-81
2023/02/04 01:09:44;;;;;;;8.73;2.90;;;;;;;3.83;99.88;97160.50;5010185;28;20479;-81
2023/02/04 01:12:11;;;;;;;8.95;2.90;;;;;;;3.79;99.82;97164.75;4985054;28;20049;-81
2023/02/04 01:14:38;;;;;;;15.50;3.75;;;;;;;3.74;98.79;97159.31;5000655;28;20053;-81
2023/02/04 01:17:05;;;;;;;13.32;4.15;;;;;;;3.81;97.09;97168.03;4988326;28;20494;-81
2023/02/04 01:19:33;;;;;;;17.80;3.45;;;;;;;3.79;97.71;97170.13;5016520;28;20050;-81
2023/02/04 01:24:51;;;;;;;11.73;3.25;;;;;;;3.78;98.06;97173.91;5022104;28;20061;-82
2023/02/04 01:30:29;;;;;;;12.75;3.30;;;;;;;3.73;98.07;97181.13;5018372;28;20077;-82
2023/02/04 01:32:58;;;;;;;9.35;3.22;;;;;;;3.64;98.51;97173.50;5019613;23;20034;-80
2023/02/04 01:35:26;;;;;;;15.80;3.67;;;;;;;3.51;100.00;97181.16;4994288;28;20071;-77
2023/02/04 01:37:53;;;;;;;10.90;3.40;;;;;;;3.44;100.00;97186.72;5006296;28;20149;-79
2023/02/04 01:40:21;;;;;;;15.38;4.18;;;;;;;3.36;100.00;97171.84;4996149;28;20130;-78
2023/02/04 01:42:47;;;;;;;14.48;4.10;;;;;;;3.34;100.00;97176.69;5003844;28;20050;-78
2023/02/04 01:45:14;;;;;;;18.95;4.32;;;;;;;3.37;100.00;97178.84;5002246;28;20049;-80
2023/02/04 01:47:41;;;;;;;15.60;4.40;;;;;;;3.36;100.00;97188.00;4995103;28;20062;-80
2023/02/04 01:50:11;;;;;;;9.95;3.58;;;;;;;3.38;100.00;97185.84;4982002;28;20069;-80
2023/02/04 01:52:39;;;;;;;9.80;3.40;;;;;;;3.40;100.00;97191.81;4992010;28;20474;-79
2023/02/04 01:55:13;;;;;;;10.38;3.28;;;;;;;3.44;100.00;97196.69;4996714;28;20675;-80
2023/02/04 01:57:39;;;;;;;14.13;4.07;;;;;;;3.49;100.00;97196.75;4998196;28;20057;-79
2023/02/04 02:00:10;;;;;;;12.50;3.33;;;;;;;3.57;100.00;97209.78;4993043;28;20046;-78
2023/02/04 02:02:42;;;;;;;14.50;3.78;;;;;;;3.55;100.00;97209.19;4993012;28;20054;-79
2023/02/04 02:05:11;;;;;;;17.08;3.65;;;;;;;3.50;100.00;97219.91;4998780;28;20046;-80
2023/02/04 02:07:39;;;;;;;11.40;3.20;;;;;;;3.50;100.00;97218.06;4983845;28;20142;-80
2023/02/04 02:10:07;;;;;;;14.63;4.30;;;;;;;3.55;100.00;97222.66;4990291;28;20478;-80
2023/02/04 02:12:34;;;;;;;15.00;4.20;;;;;;;3.55;100.00;97215.41;4998683;28;20494;-79
2023/02/04 02:15:01;;;;;;;12.27;3.40;;;;;;;3.45;100.00;97209.09;4995794;28;20043;-79
2023/02/04 02:17:29;;;;;;;9.43;3.20;;;;;;;3.39;100.00;97214.44;4992985;28;20043;-78
2023/02/04 02:19:55;;;;;;;17.38;4.05;;;;;;;3.36;100.00;97211.41;4990709;28;20050;-81
2023/02/04 02:22:27;;;;;;;16.92;3.45;;;;;;;3.39;100.00;97203.66;5007690;28;20053;-79
2023/02/04 02:24:55;;;;;;;16.65;4.40;;;;;;;3.46;100.00;97198.06;5003203;28;20058;-80
2023/02/04 02:27:22;;;;;;;12.77;3.55;;;;;;;3.42;100.00;97191.56;5000469;28;20038;-79
2023/02/04 02:29:49;;;;;;;9.70;3.80;;;;;;;3.49;100.00;97200.25;4994628;28;20050;-80
2023/02/04 02:32:16;;;;;;;12.13;3.67;;;;;;;3.47;100.00;97198.88;4981756;28;20054;-79
2023/02/04 02:34:44;;;;;;;14.50;4.00;;;;;;;3.46;100.00;97200.78;4991802;28;20051;-81
2023/02/04 02:37:11;;;;;;;15.38;3.38;;;;;;;3.48;100.00;97208.59;5000780;28;20050;-80
2023/02/04 02:39:40;;;;;;;20.48;3.28;;;;;;;3.56;99.86;97208.97;4993123;28;20050;-80
2023/02/04 02:42:10;;;;;;;11.77;3.10;;;;;;;3.59;98.24;97207.63;4989867;28;20043;-79
2023/02/04 02:44:37;;;;;;;15.15;3.20;;;;;;;3.61;97.00;97205.53;5000481;28;20046;-80
2023/02/04 02:47:04;;;;;;;14.55;3.17;;;;;;;3.67;95.78;97210.69;4992722;28;20141;-80
2023/02/04 02:49:33;;;;;;;15.80;3.20;;;;;;;3.65;96.08;97218.22;4998412;28;20409;-79
2023/02/04 02:52:00;;;;;;;11.20;3.00;;;;;;;3.65;95.45;97217.38;4998642;28;20554;-80
2023/02/04 02:54:29;;;;;;;15.85;3.42;;;;;;;3.67;94.27;97229.56;4998784;28;20688;-79
2023/02/04 02:56:57;;;;;;;14.07;3.08;;;;;;;3.56;94.85;97237.78;4993768;28;20046;-81
2023/02/04 02:59:26;;;;;;;13.85;2.83;;;;;;;3.55;94.30;97233.44;5005993;28;20504;-78
2023/02/04 03:01:57;;;;;;;15.77;3.30;;;;;;;3.52;93.68;97233.94;4997844;28;20052;-79
2023/02/04 03:04:26;;;;;;;11.43;3.10;;;;;;;3.51;92.77;97240.41;5005568;28;20108;-80
2023/02/04 03:06:54;;;;;;;17.45;2.85;;;;;;;3.46;93.38;97234.97;5006195;28;20165;-79
2023/02/04 03:09:24;;;;;;;13.30;3.00;;;;;;;3.42;92.54;97247.28;5014385;28;20501;-80
2023/02/04 03:11:50;;;;;;;14.60;3.08;;;;;;;3.40;91.98;97240.28;5006797;28;20049;-80
2023/02/04 03:14:17;;;;;;;13.35;3.15;;;;;;;3.36;90.91;97241.84;5002308;28;20045;-79
2023/02/04 03:16:47;;;;;;;12.65;3.03;;;;;;;3.34;91.43;97254.75;5004284;28;20046;-81
2023/02/04 03:19:14;;;;;;;9.75;2.70;;;;;;;3.37;91.90;97262.31;4996127;28;20415;-80
2023/02/04 03:21:42;;;;;;;12.48;3.30;;;;;;;3.34;92.40;97276.28;5003914;28;20077;-80
2023/02/04 03:24:09;;;;;;;15.07;2.95;;;;;;;3.27;93.53;97281.00;5003785;28;20046;-80
2023/02/04 03:26:35;;;;;;;20.25;3.20;;;;;;;3.26;95.61;97282.09;5006473;28;20429;-80
2023/02/04 03:29:02;;;;;;;14.30;2.92;;;;;;;3.24;95.73;97292.28;5005523;28;20042;-79
2023/02/04 03:31:29;;;;;;;13.00;3.22;;;;;;;3.20;96.87;97291.16;4992732;28;20046;-79
2023/02/04 03:33:56;;;;;;;14.75;3.05;;;;;;;3.11;97.20;97298.00;5000873;28;20046;-79
2023/02/04 03:36:23;;;;;;;15.15;3.00;;;;;;;3.14;97.62;97297.53;5010865;28;20042;-80
2023/02/04 03:38:51;;;;;;;11.30;2.72;;;;;;;3.09;96.83;97298.28;5017263;28;20049;-80
2023/02/04 03:41:17;;;;;;;16.30;3.15;;;;;;;2.98;97.08;97309.13;4997207;28;20093;-78
2023/02/04 03:43:44;;;;;;;10.95;2.28;;;;;;;2.87;97.28;97308.13;4996257;28;20077;-80
2023/02/04 03:46:10;;;;;;;15.45;2.75;;;;;;;2.74;97.29;97309.28;5011167;28;20057;-80
2023/02/04 03:48:37;;;;;;;12.88;3.35;;;;;;;2.69;97.96;97325.34;5008188;28;20054;-80
2023/02/04 03:51:05;;;;;;;13.50;2.75;;;;;;;2.57;97.95;97325.41;4996475;28;20584;-82
2023/02/04 03:53:32;;;;;;;11.13;2.72;;;;;;;2.50;98.51;97340.06;4996893;28;20507;-80
2023/02/04 03:55:59;;;;;;;11.23;2.67;;;;;;;2.48;98.38;97342.19;4999772;28;20062;-79
2023/02/04 03:58:25;;;;;;;15.57;3.20;;;;;;;2.45;98.44;97348.03;4990515;28;20041;-79
2023/02/04 04:00:52;;;;;;;10.55;2.65;;;;;;;2.43;98.10;97356.34;5006851;28;20061;-79
2023/02/04 04:03:18;;;;;;;20.33;3.95;;;;;;;2.41;98.60;97358.47;4993167;28;20081;-79
2023/02/04 04:05:45;;;;;;;13.55;2.45;;;;;;;2.41;98.69;97363.03;4992210;28;20053;-80
2023/02/04 04:08:13;;;;;;;20.17;3.50;;;;;;;2.43;98.32;97371.66;5003045;28;20052;-80
2023/02/04 04:10:39;;;;;;;11.07;2.95;;;;;;;2.50;97.46;97366.94;4995198;28;20053;-80
2023/02/04 04:13:06;;;;;;;10.32;2.67;;;;;;;2.53;97.53;97371.84;4994450;28;20049;-80
2023/02/04 04:15:32;;;;;;;10.68;2.42;;;;;;;2.52;96.87;97371.03;4994635;28;20050;-80
2023/02/04 04:17:59;;;;;;;13.35;3.42;;;;;;;2.51;97.56;97371.28;4993964;28;20043;-81
2023/02/04 04:20:27;;;;;;;14.30;3.40;;;;;;;2.49;97.95;97376.06;4993690;28;20055;-80
2023/02/04 04:22:53;;;;;;;12.48;2.30;;;;;;;2.52;98.60;97375.59;5001426;28;20046;-80
2023/02/04 04:25:21;;;;;;;11.73;2.65;;;;;;;2.49;98.57;97379.56;4995505;28;20052;-80
2023/02/04 04:27:48;;;;;;;12.32;2.63;;;;;;;2.49;99.04;97374.19;5003290;28;20046;-79
2023/02/04 04:30:14;;;;;;;8.77;2.40;;;;;;;2.56;99.04;97376.75;4997140;28;20517;-80
2023/02/04 04:32:41;;;;;;;12.60;2.92;;;;;;;2.55;98.89;97385.84;5009397;28;20053;-81
2023/02/04 04:35:08;;;;;;;10.02;2.95;;;;;;;2.54;99.84;97384.22;4994039;28;20046;-80
2023/02/04 04:37:34;;;;;;;19.48;2.97;;;;;;;2.59;99.74;97381.63;5010368;28;20050;-79
2023/02/04 04:40:01;;;;;;;10.88;2.53;;;;;;;2.62;99.31;97381.16;5007899;28;20045;-78
2023/02/04 04:42:29;;;;;;;16.58;3.08;;;;;;;2.68;99.41;97380.19;5008514;28;20046;-79
2023/02/04 04:44:56;;;;;;;13.95;2.80;;;;;;;2.70;99.38;97388.81;5020490;28;20505;-78
2023/02/04 04:47:22;;;;;;;14.73;2.92;;;;;;;2.65;98.58;97387.91;5004472;28;20335;-79
2023/02/04 04:49:49;;;;;;;15.70;3.15;;;;;;;2.66;98.45;97403.81;5014384;28;20038;-78
2023/02/04 04:52:15;;;;;;;11.02;2.78;;;;;;;2.76;97.17;97419.31;5007439;28;20057;-77
2023/02/04 04:54:42;;;;;;;14.00;2.60;;;;;;;2.69;97.34;97400.66;5017224;28;20059;-78
2023/02/04 04:57:08;;;;;;;11.93;2.45;;;;;;;2.69;96.50;97407.91;5017748;28;20048;-78
2023/02/04 04:59:36;;;;;;;15.60;2.85;;;;;;;2.66;96.75;97414.56;5004179;28;20054;-78
2023/02/04 05:02:03;;;;;;;14.52;3.08;;;;;;;2.64;97.26;97419.38;4993987;28;20054;-78
2023/02/04 05:04:29;;;;;;;20.13;3.20;;;;;;;2.72;97.31;97424.38;5013782;28;20430;-78
2023/02/04 05:06:56;;;;;;;16.35;3.10;;;;;;;2.63;97.87;97415.06;5007933;28;20054;-78
2023/02/04 05:09:23;;;;;;;13.95;3.10;;;;;;;2.67;98.19;97410.84;4996552;28;20046;-78
2023/02/04 05:11:49;;;;;;;18.42;3.08;;;;;;;2.70;97.84;97426.47;4993805;28;20050;-78
2023/02/04 05:14:16;;;;;;;13.00;3.35;;;;;;;2.68;97.58;97420.53;5001021;28;20043;-79
2023/02/04 05:16:43;;;;;;;15.20;2.95;;;;;;;2.76;97.53;97436.25;5000871;28;20050;-79
2023/02/04 05:19:10;;;;;;;14.77;3.55;;;;;;;2.72;97.38;97424.38;5005949;28;20048;-78
2023/02/04 05:21:36;;;;;;;14.68;3.08;;;;;;;2.73;97.61;97439.44;5006209;28;20049;-78
2023/02/04 05:24:05;;;;;;;17.02;3.33;;;;;;;2.75;97.36;97441.91;4995490;28;20426;-79
2023/02/04 05:26:31;;;;;;;16.50;3.70;;;;;;;2.73;96.79;97447.53;5006734;28;20134;-80
2023/02/04 05:28:59;;;;;;;9.18;2.65;;;;;;;2.76;96.82;97447.03;5006129;28;20494;-80
2023/02/04 05:31:26;;;;;;;15.65;3.40;;;;;;;2.73;97.08;97452.91;4990223;28;20445;-78
2023/02/04 05:33:54;;;;;;;15.85;3.22;;;;;;;2.73;96.57;97458.28;4993048;28;20057;-78
2023/02/04 05:36:24;;;;;;;13.80;2.60;;;;;;;2.71;96.76;97451.50;5001372;28;20067;-78
2023/02/04 05:38:50;;;;;;;13.88;3.42;;;;;;;2.79;96.09;97456.50;5001111;28;20046;-79
2023/02/04 05:41:17;;;;;;;13.18;3.13;;;;;;;2.81;94.84;97455.19;5001848;28;20406;-80
2023/02/04 05:43:43;;;;;;;12.63;3.20;;;;;;;2.82;94.10;97461.41;4990169;28;20471;-78
2023/02/04 05:46:10;;;;;;;14.93;2.92;;;;;;;2.81;93.66;97471.31;4999855;28;20093;-79
2023/02/04 05:48:38;;;;;;;14.40;3.53;;;;;;;2.89;93.84;97472.81;5006756;28;20049;-79
2023/02/04 05:51:07;;;;;;;13.25;2.53;;;;;;;2.85;92.98;97482.44;4995863;28;20049;-80
2023/02/04 05:53:33;;;;;;;10.50;2.60;;;;;;;2.90;92.69;97479.84;5000312;28;20587;-79
2023/02/04 05:56:00;;;;;;;13.55;3.03;;;;;;;2.90;92.12;97489.78;4999543;28;20072;-79
2023/02/04 05:58:32;;;;;;;16.70;2.83;;;;;;;2.91;91.36;97491.41;5004183;28;20060;-79
2023/02/04 06:01:00;;;;;;;15.55;3.22;;;;;;;3.00;90.16;97500.72;5006459;28;20056;-78
2023/02/04 06:03:26;;;;;;;11.55;2.83;;;;;;;2.97;91.31;97514.66;5016546;28;20765;-78
2023/02/04 06:05:53;;;;;;;14.60;2.67;;;;;;;2.94;91.60;97512.47;5023967;28;20049;-78
2023/02/04 06:08:21;;;;;;;14.23;2.38;;;;;;;2.88;92.47;97525.81;5011258;28;20056;-78
2023/02/04 06:10:48;;;;;;;15.82;2.58;;;;;;;2.87;92.86;97532.25;5016196;28;20045;-81
2023/02/04 06:13:15;;;;;;;9.82;2.85;;;;;;;2.83;92.84;97533.78;5025526;28;20061;-80
2023/02/04 06:15:42;;;;;;;11.52;3.05;;;;;;;2.88;92.47;97535.75;5028973;28;20041;-81
2023/02/04 06:18:09;;;;;;;7.45;2.53;;;;;;;2.90;92.39;97535.53;5030108;28;20057;-81
2023/02/04 06:20:35;;;;;;;12.10;2.53;;;;;;;2.79;93.30;97539.88;5022625;28;20050;-80
2023/02/04 06:23:02;;;;;;;11.27;2.30;;;;;;;2.72;93.82;97537.34;5023808;28;20057;-79
2023/02/04 06:25:30;;;;;;;11.82;2.40;;;;;;;2.67;93.72;97544.50;5015241;28;20555;-79
2023/02/04 06:27:58;;;;;;;18.77;2.85;;;;;;;2.72;93.04;97542.72;5020658;28;20050;-80
2023/02/04 06:30:27;;;;;;;15.05;3.05;;;;;;;2.78;93.35;97536.38;5011391;28;20051;-81
2023/02/04 06:32:54;;;;;;;12.77;2.65;;;;;;;2.73;92.54;97543.53;5045223;28;20105;-78
2023/02/04 06:35:20;;;;;;;10.57;2.70;;;;;;;2.81;92.20;97538.56;5013153;28;20046;-79
2023/02/04 06:37:47;;;;;;;17.73;3.00;;;;;;;2.81;90.75;97541.25;5026068;28;20050;-78
2023/02/04 06:40:14;;;;;;;10.95;2.50;;;;;;;2.85;90.97;97547.81;5030028;28;20054;-79
2023/02/04 06:42:42;;;;;;;9.73;2.67;;;;;;;2.90;90.83;97548.97;5044144;28;20048;-80
2023/02/04 06:45:09;;;;;;;11.57;2.58;;;;;;;2.93;90.85;97543.13;5020898;28;20046;-78
2023/02/04 06:47:36;;;;;;;14.57;2.65;;;;;;;2.93;90.68;97553.88;5026701;28;20054;-78
2023/02/04 06:50:02;;;;;;;14.73;3.08;;;;;;;2.93;90.06;97551.19;5016931;28;20050;-76
2023/02/04 06:52:29;;;;;;;13.27;2.58;;;;;;;2.97;90.06;97552.31;5027888;28;20054;-78
2023/02/04 06:54:55;;;;;;;12.18;2.75;;;;;;;2.97;89.81;97546.94;5018477;28;20054;-77
2023/02/04 06:57:22;;;;;;;9.20;2.08;;;;;;;3.01;90.27;97556.19;5019655;28;20057;-81
2023/02/04 06:59:50;;;;;;;15.48;3.13;;;;;;;3.07;90.22;97558.72;5040146;28;20053;-79
2023/02/04 07:02:17;;;;;;;7.45;2.10;;;;;;;3.01;89.60;97564.25;5029869;28;20041;-79
2023/02/04 07:04:44;;;;;;;12.93;3.30;;;;;;;2.99;89.54;97571.75;5033844;28;20073;-79
2023/02/04 07:07:10;;;;;;;13.90;3.38;;;;;;;3.03;90.20;97575.59;5027269;28;20060;-77
2023/02/04 07:09:39;;;;;;;12.63;2.85;;;;;;;3.08;88.67;97583.75;5019597;28;20085;-77
2023/02/04 07:12:06;;;;;;;13.27;3.05;;;;;;;3.03;88.69;97586.38;5033135;28;20050;-76
2023/02/04 07:14:32;;;;;;;7.78;2.25;;;;;;;3.03;88.29;97575.59;5017961;28;20061;-78
2023/02/04 07:17:00;;;;;;;13.20;2.60;;;;;;;2.97;88.86;97582.75;5035334;28;20029;-80
2023/02/04 07:19:27;;;;;;;6.50;2.10;;;;;;;3.07;88.88;97587.50;5033342;28;20045;-76
2023/02/04 07:21:55;;;;;;;8.45;2.45;;;;;;;3.04;89.66;97598.75;5031893;28;20050;-76
2023/02/04 07:24:22;;;;;;;9.23;2.55;;;;;;;3.09;89.45;97606.94;5020716;28;20065;-78
2023/02/04 07:26:48;;;;;;;10.25;2.78;;;;;;;3.09;88.42;97609.63;5022923;28;20061;-77
2023/02/04 07:29:15;;;;;;;11.45;2.45;;;;;;;3.16;87.94;97617.56;5016895;28;20038;-77
2023/02/04 07:31:41;;;;;;;10.00;3.03;;;;;;;3.14;88.17;97621.31;5013864;28;20421;-77
2023/02/04 07:34:12;;;;;;;11.18;2.75;;;;;;;3.13;88.60;97635.84;5024989;28;20066;-78
2023/02/04 07:36:38;;;;;;;10.73;3.00;;;;;;;3.07;88.65;97631.38;5016598;28;20536;-77
2023/02/04 07:39:05;;;;;;;9.18;2.30;;;;;;;3.15;88.63;97638.28;5014777;28;20058;-76
2023/02/04 07:41:32;;;;;;;11.13;2.22;;;;;;;3.13;88.97;97640.38;5005147;28;20537;-76
2023/02/04 07:43:58;;;;;;;10.60;2.58;;;;;;;3.08;89.40;97653.72;5023093;28;20054;-77
2023/02/04 07:46:25;;;;;;;11.20;2.00;;;;;;;3.07;89.38;97663.66;5001890;28;20069;-78
2023/02/04 07:48:51;;;;;;;10.65;2.38;;;;;;;3.05;89.61;97667.66;5018303;28;20060;-78
2023/02/04 07:51:19;;;;;;;13.90;2.70;;;;;;;2.98;90.81;97669.69;5023187;28;20046;-79
2023/02/04 07:53:45;;;;;;;10.38;2.50;;;;;;;2.84;93.57;97664.53;5023613;28;20049;-77
2023/02/04 07:56:12;;;;;;;13.32;2.65;;;;;;;2.81;94.18;97680.34;5008696;28;20042;-78
2023/02/04 07:58:39;;;;;;;10.63;2.58;;;;;;;2.70;94.51;97679.28;5005286;28;20070;-77
2023/02/04 08:01:05;;;;;;;11.43;2.63;;;;;;;2.71;94.21;97686.31;5016659;28;20050;-79
2023/02/04 08:03:32;;;;;;;7.60;2.58;;;;;;;2.67;94.78;97682.47;5014261;28;20497;-77
2023/02/04 08:05:58;;;;;;;14.73;2.63;;;;;;;2.73;93.97;97684.22;5021227;28;20053;-79
2023/02/04 08:08:26;;;;;;;14.35;2.60;;;;;;;2.78;91.86;97688.88;5005925;28;20054;-79
2023/02/04 08:10:53;;;;;;;11.27;2.45;;;;;;;2.78;93.96;97688.88;5009384;28;20041;-79
2023/02/04 08:13:19;;;;;;;11.23;2.53;;;;;;;2.81;93.79;97680.34;5009697;28;20556;-77
2023/02/04 08:15:46;;;;;;;12.57;2.00;;;;;;;2.91;93.67;97690.50;5020898;28;20049;-78
2023/02/04 08:18:12;;;;;;;14.48;2.83;;;;;;;3.04;92.46;97682.19;5011405;28;20052;-78
2023/02/04 08:20:39;;;;;;;10.68;2.67;;;;;;;3.11;92.52;97685.56;5011438;28;20085;-78
2023/02/04 08:23:05;;;;;;;9.60;2.30;;;;;;;3.22;91.76;97686.59;5005783;28;20050;-77
2023/02/04 08:25:33;;;;;;;16.20;2.67;;;;;;;3.23;91.80;97694.41;5013776;28;20057;-78
2023/02/04 08:28:00;;;;;;;11.18;2.75;;;;;;;3.25;92.33;97697.69;5012356;28;20050;-78
2023/02/04 08:30:28;;;;;;;9.25;2.60;;;;;;;3.25;91.49;97703.09;5008196;28;20488;-78
2023/02/04 08:32:55;;;;;;;9.88;2.53;;;;;;;3.20;91.10;97704.84;5008141;28;20050;-78
2023/02/04 08:35:22;;;;;;;14.13;2.85;;;;;;;3.24;90.83;97712.22;5007598;28;20628;-77
2023/02/04 08:37:48;;;;;;;8.88;2.10;;;;;;;3.20;90.44;97721.81;5009065;28;20093;-77
2023/02/04 08:40:15;;;;;;;9.70;2.17;;;;;;;3.24;90.12;97735.63;5016551;28;20042;-78
2023/02/04 08:42:43;;;;;;;9.90;2.50;;;;;;;3.22;89.58;97735.84;5007642;28;20072;-77
2023/02/04 08:45:09;;;;;;;13.77;2.47;;;;;;;3.16;89.68;97742.19;5007818;28;20057;-78
2023/02/04 08:47:36;;;;;;;11.88;2.10;;;;;;;3.38;89.35;97762.03;4999064;28;20047;-78
2023/02/04 08:50:03;;;;;;;8.90;2.20;;;;;;;3.50;88.76;97769.25;5014168;28;20045;-79
2023/02/04 08:52:30;;;;;;;3.03;1.10;;;;;;;3.46;86.91;97784.28;5008912;28;20683;-78
2023/02/04 08:54:56;;;;;;;7.57;1.50;;;;;;;3.29;87.06;97776.94;5009362;28;20065;-79
2023/02/04 08:57:23;;;;;;;4.38;1.83;;;;;;;2.85;88.09;97784.56;5030586;28;20056;-79
2023/02/04 08:59:51;;;;;;;3.75;1.20;;;;;;;2.66;88.92;97791.06;5011087;28;20050;-80
2023/02/04 09:02:17;;;;;;;5.82;2.33;;;;;;;2.30;89.90;97794.78;5026010;28;20045;-79
2023/02/04 09:04:44;;;;;;;3.55;1.50;;;;;;;2.02;91.71;97800.72;5016213;28;20052;-77
2023/02/04 09:07:11;;;;;;;3.30;1.42;;;;;;;1.82;93.50;97806.38;5009369;28;20048;-76
2023/02/04 09:09:37;;;;;;;4.78;2.17;;;;;;;1.56;94.31;97807.50;5018161;28;20077;-78
2023/02/04 09:12:04;;;;;;;4.90;1.83;;;;;;;1.22;94.77;97807.06;5007388;28;20080;-77
2023/02/04 09:14:30;;;;;;;8.23;2.80;;;;;;;0.89;96.08;97811.94;5014822;28;20057;-78
2023/02/04 09:16:58;;;;;;;6.07;2.47;;;;;;;0.61;97.54;97820.44;5023492;28;20053;-77
2023/02/04 09:19:25;;;;;;;7.70;2.33;;;;;;;0.41;98.76;97821.41;4997478;28;20473;-77
2023/02/04 09:21:52;;;;;;;3.30;1.92;;;;;;;0.31;100.00;97809.50;5004629;28;20069;-79
2023/02/04 09:24:18;;;;;;;3.65;2.08;;;;;;;0.27;100.00;97813.69;5014880;28;20052;-81
2023/02/04 09:26:45;;;;;;;4.20;2.10;;;;;;;0.25;100.00;97820.06;5022064;28;20058;-77
2023/02/04 09:29:11;;;;;;;6.68;3.42;;;;;;;0.30;100.00;97818.59;5000445;28;20054;-77
2023/02/04 09:31:38;;;;;;;6.50;3.17;;;;;;;0.41;100.00;97815.22;5017146;28;20088;-78
2023/02/04 09:34:06;;;;;;;5.40;2.50;;;;;;;0.54;100.00;97820.50;5007729;28;20054;-77
2023/02/04 09:36:36;;;;;;;2.72;1.80;;;;;;;0.61;100.00;97823.94;5022578;28;20494;-78
2023/02/04 09:39:04;;;;;;;4.60;1.85;;;;;;;0.77;100.00;97830.59;5002901;28;20046;-77
2023/02/04 09:41:31;;;;;;;3.47;1.67;;;;;;;0.90;100.00;97829.69;5007251;28;20138;-77
2023/02/04 09:43:59;;;;;;;4.70;2.20;;;;;;;1.09;100.00;97842.06;5006257;28;20042;-77
2023/02/04 09:46:28;;;;;;;3.88;2.30;;;;;;;1.30;100.00;97847.06;4998363;28;20054;-77
2023/02/04 09:48:56;;;;;;;6.38;2.33;;;;;;;1.53;100.00;97834.81;5006754;28;20437;-77
2023/02/04 09:51:27;;;;;;;4.15;2.45;;;;;;;1.76;100.00;97845.69;5013632;28;20634;-77
2023/02/04 09:53:55;;;;;;;4.18;2.30;;;;;;;1.73;100.00;97850.72;5003989;28;20050;-80
2023/02/04 09:56:22;;;;;;;7.05;2.30;;;;;;;1.68;100.00;97858.63;5016437;28;20178;-77
2023/02/04 09:58:49;;;;;;;4.07;1.98;;;;;;;1.71;100.00;97864.34;5007452;28;20069;-78
2023/02/04 10:01:18;;;;;;;6.80;1.98;;;;;;;1.76;100.00;97866.38;5012466;28;20038;-77
2023/02/04 10:03:48;;;;;;;3.28;1.98;;;;;;;1.85;100.00;97869.56;5008778;28;20452;-77
2023/02/04 10:06:17;;;;;;;4.07;2.03;;;;;;;2.00;100.00;97861.94;5009950;28;20128;-77
2023/02/04 10:08:46;;;;;;;4.63;2.08;;;;;;;2.07;100.00;97863.50;4997986;28;20053;-77
2023/02/04 10:11:14;;;;;;;3.80;2.00;;;;;;;2.15;100.00;97870.44;5004803;28;20053;-77
2023/02/04 10:13:43;;;;;;;3.47;1.58;;;;;;;2.17;100.00;97868.34;5008463;28;20050;-79
2023/02/04 10:16:15;;;;;;;5.50;1.83;;;;;;;2.30;100.00;97870.03;4999882;28;20130;-78
2023/02/04 10:18:42;;;;;;;4.63;2.10;;;;;;;2.59;100.00;97873.75;5002327;28;20046;-78
2023/02/04 10:21:18;;;;;;;5.03;2.63;;;;;;;2.91;100.00;97871.59;5008290;28;20042;-78
2023/02/04 10:23:49;;;;;;;9.45;2.63;;;;;;;3.30;99.52;97877.38;5022770;28;20144;-78
2023/02/04 10:26:17;;;;;;;5.55;2.58;;;;;;;3.36;97.01;97879.13;5006420;28;20056;-78
2023/02/04 10:28:44;;;;;;;4.75;1.98;;;;;;;3.47;95.67;97881.00;5013573;28;20049;-77
2023/02/04 10:31:29;;;;;;;3.78;2.15;;;;;;;3.39;94.96;97886.72;5010126;28;20412;-76
2023/02/04 10:34:14;;;;;;;3.00;1.70;;;;;;;3.22;94.51;97878.53;5006762;28;20747;-78
2023/02/04 10:36:43;;;;;;;3.58;2.08;;;;;;;3.30;95.02;97878.19;5001297;28;20777;-77
2023/02/04 10:39:17;;;;;;;4.22;2.40;;;;;;;3.32;94.96;97869.88;5012368;28;20062;-76
2023/02/04 10:41:49;;;;;;;7.15;2.50;;;;;;;3.40;95.26;97867.66;5006884;28;20052;-77
2023/02/04 10:44:18;;;;;;;5.20;2.40;;;;;;;3.47;94.27;97864.00;5006338;28;20049;-76
2023/02/04 10:46:44;;;;;;;4.28;2.28;;;;;;;3.38;90.59;97863.53;5000101;28;20424;-77
2023/02/04 10:49:20;;;;;;;3.55;1.92;;;;;;;3.46;89.64;97859.69;5013794;28;20509;-76
2023/02/04 10:51:48;;;;;;;2.63;1.55;;;;;;;3.43;88.19;97860.16;5006936;28;20532;-78
2023/02/04 10:54:31;;;;;;;2.65;1.52;;;;;;;3.52;88.66;97858.75;5008103;28;20383;-77
2023/02/04 10:57:06;;;;;;;;;;;;;;;3.54;89.24;97867.41;5011676;28;20104;-76
2023/02/04 10:59:34;;;;;;;2.65;1.65;;;;;;;3.61;89.91;97866.22;5001748;28;19925;-75
2023/02/04 11:02:02;;;;;;;4.75;2.15;;;;;;;3.56;89.00;97870.69;5016956;28;20286;-75
2023/02/04 11:04:31;;;;;;;2.80;1.90;;;;;;;3.49;87.93;97875.34;5007893;28;20074;-76
2023/02/04 11:06:58;;;;;;;2.88;2.15;;;;;;;3.38;87.50;97877.00;5006202;28;20050;-76
2023/02/04 11:09:26;;;;;;;3.88;2.25;;;;;;;3.36;88.31;97871.88;5005967;28;20065;-77
2023/02/04 11:11:53;;;;;;;5.63;2.40;;;;;;;3.49;88.14;97870.78;5007287;28;20053;-77
2023/02/04 11:14:28;;;;;;;3.05;2.10;;;;;;;3.35;88.44;97874.78;5005975;28;20042;-77
2023/02/04 11:16:59;;;;;;;4.13;2.13;;;;;;;3.33;88.40;97875.00;5006702;28;20049;-78
2023/02/04 11:19:37;;;;;;;4.03;2.17;;;;;;;3.32;88.53;97875.25;5006420;28;20581;-78
2023/02/04 11:22:06;;;;;;;4.80;2.25;;;;;;;3.39;87.92;97874.09;5006880;28;20050;-77
2023/02/04 11:24:40;;;;;;;6.40;2.70;;;;;;;3.50;87.80;97875.16;5007046;28;20506;-78
2023/02/04 11:27:19;;;;;;;4.55;2.15;;;;;;;3.70;87.20;97861.28;5010924;28;20497;-78
2023/02/04 11:29:46;;;;;;;3.40;2.00;;;;;;;3.84;86.40;97865.34;5010822;28;20123;-77
2023/02/04 11:32:29;;;;;;;4.07;1.90;;;;;;;3.85;85.60;97869.69;5002109;28;20050;-75
2023/02/04 11:35:07;;;;;;;3.67;2.00;;;;;;;4.00;85.39;97855.72;5003717;28;20061;-78
2023/02/04 11:37:37;;;;;;;2.92;1.95;;;;;;;4.06;85.20;97862.03;5004072;28;20058;-77
2023/02/04 11:40:21;;;;;;;4.50;2.00;;;;;;;4.01;83.98;97859.22;5018856;28;20077;-77
2023/02/04 11:42:48;;;;;;;4.75;1.90;;;;;;;4.11;83.99;97872.91;5010678;28;20045;-76
2023/02/04 11:45:22;;;;;;;3.08;1.80;;;;;;;4.01;81.32;97872.69;5010357;28;20098;-77